Time;durP1;ratioP1;P1;durP2;ratioP2;P2;SDS_P1;SDS_P2;PMS_P1;PMS_P2;Temp;Humidity;BMP_temperature;BMP_pressure;BME280_temperature;BME280_humidity;BME280_pressure;Samples;Min_cycle;Max_cycle;Signal;HPM_P1;HPM_P2
2023/06/06 02:25:05;;;;;;;6.90;4.80;;;;;;;14.44;80.39;100903.85;103322;1304;544948;-74
2023/06/06 02:27:34;;;;;;;6.40;5.00;;;;;;;14.72;79.43;100906.88;105553;1287;22544;-71
2023/06/06 02:30:06;;;;;;;7.30;5.30;;;;;;;15.04;78.18;100904.77;105359;1285;139139;-67
2023/06/06 02:32:33;;;;;;;7.30;5.50;;;;;;;15.39;76.56;100904.22;109860;1275;139831;-72
2023/06/06 02:35:03;;;;;;;6.20;5.60;;;;;;;15.75;74.56;100905.11;109990;1275;22331;-72
2023/06/06 02:37:32;;;;;;;8.50;4.90;;;;;;;16.12;72.86;100904.38;109835;1275;136913;-72
2023/06/06 02:40:08;;;;;;;8.10;5.10;;;;;;;16.49;71.17;100897.62;110003;1272;23069;-74
2023/06/06 02:42:38;;;;;;;5.70;4.90;;;;;;;16.88;69.13;100899.35;110053;1272;22878;-75
2023/06/06 02:45:08;;;;;;;5.70;5.20;;;;;;;17.22;68.02;100898.92;109978;1278;137173;-73
2023/06/06 02:47:36;;;;;;;6.40;4.70;;;;;;;17.62;66.11;100900.10;109991;1269;23195;-70
2023/06/06 02:50:04;;;;;;;7.20;5.70;;;;;;;17.98;64.20;100896.23;110005;1274;137270;-72
2023/06/06 02:52:32;;;;;;;7.30;3.90;;;;;;;18.35;62.71;100899.86;109947;1278;138054;-72
2023/06/06 02:54:59;;;;;;;5.90;5.20;;;;;;;18.74;61.15;100900.08;110121;1272;22497;-72
2023/06/06 02:57:27;;;;;;;5.20;4.70;;;;;;;19.15;59.79;100898.08;110052;1277;138927;-72
2023/06/06 02:59:55;;;;;;;8.10;4.80;;;;;;;19.55;58.52;100896.77;110141;1271;22339;-71
2023/06/06 03:02:22;;;;;;;5.40;4.60;;;;;;;19.94;57.03;100897.74;109975;1272;138382;-72
2023/06/06 03:04:49;;;;;;;10.80;5.10;;;;;;;20.24;55.57;100897.25;109865;1277;137740;-70
2023/06/06 03:07:17;;;;;;;7.40;4.80;;;;;;;20.25;54.71;100898.63;110083;1271;22998;-72
2023/06/06 03:09:45;;;;;;;5.80;4.00;;;;;;;20.01;54.95;100899.81;110002;1276;137769;-72
2023/06/06 03:12:15;;;;;;;4.60;4.10;;;;;;;19.67;55.64;100902.74;109954;1274;139040;-72
2023/06/06 03:14:42;;;;;;;8.70;4.50;;;;;;;19.39;56.52;100904.45;110114;1278;22309;-74
2023/06/06 03:17:24;;;;;;;5.70;5.10;;;;;;;19.35;57.51;100903.56;109875;1276;137353;-74
2023/06/06 03:19:52;;;;;;;7.80;5.20;;;;;;;19.61;57.33;100904.17;109990;1272;22327;-73
2023/06/06 03:22:19;;;;;;;7.10;4.60;;;;;;;20.07;56.18;100903.81;110001;1275;137938;-70
2023/06/06 03:24:49;;;;;;;6.10;4.40;;;;;;;20.66;54.77;100903.14;109961;1271;139070;-66
2023/06/06 03:27:18;;;;;;;9.60;4.10;;;;;;;21.21;53.12;100906.69;109987;1267;23080;-76
2023/06/06 03:29:46;;;;;;;4.10;3.70;;;;;;;21.79;51.51;100904.73;109988;1273;138436;-78
2023/06/06 03:32:13;;;;;;;6.00;5.20;;;;;;;22.38;50.09;100903.27;109912;1278;137824;-74
2023/06/06 03:34:41;;;;;;;5.00;3.90;;;;;;;22.87;48.52;100896.36;110016;1272;22333;-78
2023/06/06 03:37:11;;;;;;;3.80;3.50;;;;;;;23.32;46.25;100896.95;109883;1275;139129;-79
2023/06/06 03:39:39;;;;;;;7.60;4.90;;;;;;;23.62;45.16;100898.21;110104;1262;22397;-78
2023/06/06 03:42:08;;;;;;;8.60;4.30;;;;;;;23.76;44.81;100896.58;109938;1279;137011;-78
2023/06/06 03:44:36;;;;;;;7.60;3.80;;;;;;;23.95;44.29;100889.62;109865;1274;139155;-78
2023/06/06 03:47:04;;;;;;;6.60;3.80;;;;;;;24.40;43.38;100895.54;110013;1271;23131;-77
2023/06/06 03:49:36;;;;;;;6.60;3.30;;;;;;;24.84;42.11;100896.11;109976;1278;137934;-79
2023/06/06 03:52:04;;;;;;;5.80;3.60;;;;;;;25.29;41.00;100899.27;109986;1272;138778;-76
2023/06/06 03:54:36;;;;;;;6.20;3.40;;;;;;;25.71;40.01;100898.25;110016;1278;22177;-78
2023/06/06 03:57:08;;;;;;;5.70;4.20;;;;;;;26.10;39.20;100894.79;109867;1279;137449;-79
2023/06/06 03:59:36;;;;;;;12.10;4.20;;;;;;;26.56;38.09;100892.56;110055;1278;22170;-80
2023/06/06 04:02:04;;;;;;;8.30;4.00;;;;;;;26.97;37.13;100890.56;109702;1270;138916;-76
2023/06/06 04:04:32;;;;;;;9.60;4.20;;;;;;;27.33;36.47;100886.52;109807;1261;137991;-74
2023/06/06 04:06:59;;;;;;;7.90;3.80;;;;;;;27.44;35.46;100886.86;109927;1272;22323;-77
2023/06/06 04:09:27;;;;;;;5.90;4.10;;;;;;;27.37;35.42;100887.52;109807;1272;139344;-76
2023/06/06 04:11:54;;;;;;;8.00;3.80;;;;;;;27.30;35.47;100881.62;110017;1271;22974;-78
2023/06/06 04:14:22;;;;;;;6.60;3.70;;;;;;;27.37;35.68;100884.08;109780;1270;137038;-79
2023/06/06 04:16:51;;;;;;;6.40;4.00;;;;;;;27.49;35.05;100882.48;109791;1271;138547;-69
2023/06/06 04:19:19;;;;;;;6.50;3.90;;;;;;;27.48;34.90;100886.77;109929;1272;23070;-73
2023/06/06 04:21:47;;;;;;;7.70;4.30;;;;;;;27.23;35.17;100885.29;109704;1272;137547;-80
2023/06/06 04:24:14;;;;;;;7.50;4.10;;;;;;;26.98;35.88;100885.86;109741;1272;138940;-72
2023/06/06 04:26:41;;;;;;;17.30;4.10;;;;;;;26.79;35.75;100883.20;109876;1272;22349;-72
2023/06/06 04:29:12;;;;;;;7.10;3.90;;;;;;;26.45;36.51;100884.20;109816;1272;139240;-76
2023/06/06 04:31:41;;;;;;;5.80;3.30;;;;;;;26.06;37.11;100885.19;109740;1272;22322;-76
2023/06/06 04:34:09;;;;;;;8.90;4.70;;;;;;;25.78;38.21;100885.64;109872;1272;137391;-77
2023/06/06 04:36:38;;;;;;;5.90;3.40;;;;;;;25.51;37.92;100885.02;109673;1272;138351;-77
2023/06/06 04:39:07;;;;;;;6.20;3.70;;;;;;;25.22;38.34;100887.10;109923;1272;22357;-76
2023/06/06 04:41:36;;;;;;;10.50;4.00;;;;;;;25.21;38.33;100880.61;109857;1272;138357;-81
2023/06/06 04:44:06;;;;;;;5.60;3.70;;;;;;;25.68;37.73;100882.15;109872;1257;138020;-77
2023/06/06 04:46:35;;;;;;;8.40;3.30;;;;;;;26.43;36.69;100878.83;109954;1272;22314;-68
2023/06/06 04:49:03;;;;;;;5.90;3.60;;;;;;;27.17;35.27;100876.95;109900;1272;138726;-76
2023/06/06 04:51:33;;;;;;;4.30;2.60;;;;;;;27.70;33.27;100876.91;109796;1272;22300;-69
2023/06/06 04:54:03;;;;;;;6.30;3.00;;;;;;;27.66;31.75;100878.64;109872;1269;139782;-67
2023/06/06 04:56:30;;;;;;;5.10;3.00;;;;;;;27.28;32.55;100877.41;109941;1271;138744;-75
2023/06/06 04:59:05;;;;;;;8.80;2.60;;;;;;;26.92;33.31;100877.91;110024;1272;22330;-69
2023/06/06 05:01:41;;;;;;;6.70;2.30;;;;;;;26.55;33.43;100867.09;109780;1272;138046;-81
2023/06/06 05:04:08;;;;;;;4.10;2.00;;;;;;;26.28;33.95;100876.84;109904;1272;137610;-76
2023/06/06 05:06:35;;;;;;;4.10;1.90;;;;;;;25.94;33.25;100882.80;110014;1272;23000;-79
2023/06/06 05:09:04;;;;;;;4.80;2.20;;;;;;;25.54;33.21;100883.77;109847;1272;137450;-61
2023/06/06 05:11:32;;;;;;;4.40;2.00;;;;;;;25.21;34.16;100885.13;109901;1272;22331;-61
2023/06/06 05:14:00;;;;;;;3.70;2.00;;;;;;;25.03;35.03;100884.58;109850;1272;139433;-62
2023/06/06 05:16:27;;;;;;;9.20;3.00;;;;;;;24.92;35.60;100882.33;109814;1273;139192;-64
2023/06/06 05:18:54;;;;;;;5.90;1.50;;;;;;;24.78;35.28;100884.55;109904;1272;22820;-64
2023/06/06 05:21:22;;;;;;;3.40;1.60;;;;;;;24.66;35.39;100884.14;109826;1272;138312;-64
2023/06/06 05:23:49;;;;;;;4.80;2.00;;;;;;;24.68;35.31;100884.75;110027;1271;24249;-62
2023/06/06 05:26:17;;;;;;;6.70;3.10;;;;;;;24.73;34.42;100887.77;109905;1271;139942;-64
2023/06/06 05:28:45;;;;;;;4.00;1.70;;;;;;;24.96;34.32;100887.35;109799;1272;138746;-63
2023/06/06 05:31:16;;;;;;;5.50;2.70;;;;;;;25.37;34.53;100886.50;109831;1274;22329;-65
2023/06/06 05:33:45;;;;;;;3.80;1.90;;;;;;;25.68;34.19;100886.30;109809;1264;139145;-66
2023/06/06 05:36:13;;;;;;;4.70;1.90;;;;;;;25.84;32.61;100888.55;109782;1274;139026;-66
2023/06/06 05:38:41;;;;;;;5.10;2.20;;;;;;;25.83;32.33;100886.87;109813;1272;22292;-68
2023/06/06 05:41:08;;;;;;;8.50;2.00;;;;;;;25.73;31.93;100888.59;109692;1272;137514;-64
2023/06/06 05:43:36;;;;;;;5.30;1.80;;;;;;;25.58;32.12;100885.73;109830;1273;22321;-63
2023/06/06 05:46:03;;;;;;;7.10;2.10;;;;;;;25.44;33.01;100882.96;109810;1272;138199;-68
2023/06/06 05:48:31;;;;;;;6.40;1.90;;;;;;;25.39;34.50;100880.45;109908;1272;141872;-66
2023/06/06 05:50:59;;;;;;;6.20;2.90;;;;;;;25.54;34.42;100876.61;109953;1272;22373;-66
2023/06/06 05:53:28;;;;;;;5.30;3.10;;;;;;;25.91;33.80;100870.79;109930;1272;137406;-67
2023/06/06 05:55:55;;;;;;;5.10;2.70;;;;;;;26.34;32.72;100869.09;110110;1272;22860;-69
2023/06/06 05:58:23;;;;;;;4.50;1.80;;;;;;;26.72;32.22;100874.65;109812;1272;138219;-67
2023/06/06 06:00:51;;;;;;;4.90;1.60;;;;;;;26.95;30.89;100877.51;109852;1271;137893;-65
2023/06/06 06:03:18;;;;;;;4.80;1.40;;;;;;;27.19;29.76;100877.05;110052;1272;22369;-68
2023/06/06 06:05:45;;;;;;;3.20;1.30;;;;;;;27.39;29.37;100879.09;109902;1272;137579;-68
2023/06/06 06:08:14;;;;;;;9.30;1.40;;;;;;;27.54;28.78;100876.59;109938;1272;140799;-65
2023/06/06 06:10:41;;;;;;;3.10;0.80;;;;;;;27.67;28.98;100877.27;109936;1273;22332;-67
2023/06/06 06:13:08;;;;;;;4.50;0.70;;;;;;;27.84;28.57;100876.50;109906;1272;138641;-65
2023/06/06 06:15:36;;;;;;;3.10;1.00;;;;;;;28.01;27.51;100877.90;109935;1272;22326;-68
2023/06/06 06:18:03;;;;;;;4.50;0.90;;;;;;;27.98;27.61;100873.94;109913;1271;137600;-67
2023/06/06 06:20:31;;;;;;;2.40;0.60;;;;;;;27.93;27.13;100872.63;109809;1273;138482;-65
2023/06/06 06:22:58;;;;;;;6.00;0.70;;;;;;;27.82;27.05;100876.40;110017;1263;22116;-66
2023/06/06 06:25:26;;;;;;;4.20;2.30;;;;;;;27.71;26.87;100876.02;109904;1272;138493;-68
2023/06/06 06:27:55;;;;;;;2.20;0.30;;;;;;;27.72;27.09;100872.84;110045;1272;22811;-69
2023/06/06 06:30:23;;;;;;;3.50;0.90;;;;;;;27.94;26.92;100873.20;109781;1272;138623;-67
2023/06/06 06:32:50;;;;;;;1.20;0.50;;;;;;;28.23;26.12;100872.31;109812;1271;138086;-63
2023/06/06 06:35:18;;;;;;;3.10;0.60;;;;;;;28.22;26.20;100870.84;109894;1273;22346;-67
2023/06/06 06:37:45;;;;;;;2.00;0.40;;;;;;;28.13;26.05;100873.04;109862;1272;138185;-67
2023/06/06 06:40:13;;;;;;;1.00;0.40;;;;;;;28.06;26.12;100874.60;109846;1272;141734;-68
2023/06/06 06:42:44;;;;;;;3.10;0.30;;;;;;;28.04;25.78;100871.13;110131;1272;22301;-65
2023/06/06 06:45:28;;;;;;;4.00;1.00;;;;;;;28.02;25.87;100868.47;109796;1272;137583;-67
2023/06/06 06:47:55;;;;;;;6.10;0.80;;;;;;;28.02;26.00;100867.10;109928;1272;22227;-65
2023/06/06 06:50:22;;;;;;;1.60;0.40;;;;;;;28.08;26.12;100868.60;109832;1273;138618;-67
2023/06/06 06:52:50;;;;;;;1.30;0.40;;;;;;;28.18;25.71;100867.94;109886;1272;137743;-64
2023/06/06 06:55:17;;;;;;;2.30;0.50;;;;;;;28.10;25.38;100858.59;109984;1272;22344;-67
2023/06/06 06:57:45;;;;;;;4.20;0.40;;;;;;;28.09;25.63;100866.13;109913;1272;137583;-64
2023/06/06 07:00:14;;;;;;;0.60;0.30;;;;;;;28.17;26.02;100868.16;109977;1272;137938;-66
2023/06/06 07:02:45;;;;;;;0.60;0.30;;;;;;;28.24;24.40;100866.77;109973;1271;22331;-63
2023/06/06 07:05:17;;;;;;;0.90;0.20;;;;;;;28.14;24.94;100865.58;109791;1271;138056;-66
2023/06/06 07:07:54;;;;;;;0.30;0.20;;;;;;;28.25;25.01;100866.20;109894;1272;22369;-66
2023/06/06 07:10:24;;;;;;;1.40;0.50;;;;;;;28.50;24.35;100861.64;109808;1272;139124;-67
2023/06/06 07:12:52;;;;;;;2.90;0.20;;;;;;;28.75;23.43;100863.98;109804;1272;139584;-67
2023/06/06 07:15:22;;;;;;;2.10;0.20;;;;;;;28.76;23.47;100864.18;109833;1272;23033;-69
2023/06/06 07:17:50;;;;;;;0.50;0.30;;;;;;;28.61;24.15;100861.73;109853;1264;137795;-66
2023/06/06 07:20:25;;;;;;;3.90;0.10;;;;;;;28.44;24.41;100852.29;109759;1261;138249;-68
2023/06/06 07:22:53;;;;;;;5.40;0.50;;;;;;;28.33;23.98;100859.57;109855;1272;23143;-66
2023/06/06 07:25:21;;;;;;;0.60;0.30;;;;;;;28.47;23.75;100863.03;109804;1271;139123;-69
2023/06/06 07:27:49;;;;;;;0.70;0.30;;;;;;;28.67;23.71;100860.05;109765;1264;22925;-66
2023/06/06 07:30:17;;;;;;;0.70;0.10;;;;;;;28.93;23.39;100862.71;109752;1271;140606;-64
2023/06/06 07:32:46;;;;;;;1.90;0.10;;;;;;;29.25;22.79;100861.04;109805;1264;140895;-65
2023/06/06 07:35:17;;;;;;;0.90;0.20;;;;;;;29.14;22.35;100858.05;109898;1263;23106;-66
2023/06/06 07:37:44;;;;;;;2.20;0.60;;;;;;;28.73;22.82;100857.17;109942;1267;137718;-64
2023/06/06 07:40:12;;;;;;;0.60;0.30;;;;;;;28.48;23.02;100855.14;109780;1272;138454;-67
2023/06/06 07:42:41;;;;;;;2.50;0.30;;;;;;;28.28;22.96;100852.89;109896;1272;22349;-68
2023/06/06 07:45:08;;;;;;;0.20;0.10;;;;;;;27.97;23.34;100859.08;109835;1272;137882;-65
2023/06/06 07:47:36;;;;;;;0.30;0.30;;;;;;;27.50;23.64;100856.52;110066;1271;23091;-65
2023/06/06 07:50:04;;;;;;;1.50;0.40;;;;;;;27.01;24.37;100855.80;109892;1271;137695;-66
2023/06/06 07:52:32;;;;;;;1.50;0.50;;;;;;;26.63;24.88;100858.63;109795;1260;139726;-63
2023/06/06 07:55:00;;;;;;;3.20;0.20;;;;;;;26.41;25.03;100855.46;109911;1272;22393;-66
2023/06/06 07:57:30;;;;;;;0.80;0.20;;;;;;;26.31;24.76;100852.67;109886;1271;138120;-66
2023/06/06 07:59:58;;;;;;;1.40;0.20;;;;;;;26.34;24.98;100855.77;109935;1272;23279;-65
2023/06/06 08:02:26;;;;;;;1.00;0.20;;;;;;;26.45;24.01;100858.71;109657;1274;137303;-68
2023/06/06 08:04:53;;;;;;;0.60;0.20;;;;;;;26.49;23.77;100861.26;109823;1272;138365;-68
2023/06/06 08:07:21;;;;;;;0.60;0.20;;;;;;;26.46;23.40;100860.14;109724;1263;22346;-67
2023/06/06 08:09:49;;;;;;;2.10;0.10;;;;;;;26.38;23.64;100856.40;109808;1271;137866;-66
2023/06/06 08:12:16;;;;;;;0.60;0.40;;;;;;;26.26;23.92;100849.47;109787;1272;138216;-66
2023/06/06 08:14:44;;;;;;;0.90;0.10;;;;;;;26.33;23.78;100858.83;110060;1271;22316;-66
2023/06/06 08:17:12;;;;;;;2.50;0.30;;;;;;;26.34;23.58;100857.84;109776;1272;138843;-65
2023/06/06 08:19:39;;;;;;;2.60;0.30;;;;;;;26.39;23.75;100853.71;109931;1272;23146;-66
2023/06/06 08:22:07;;;;;;;0.90;0.10;;;;;;;26.38;23.69;100854.60;109786;1264;138773;-68
2023/06/06 08:24:34;;;;;;;0.20;0.20;;;;;;;26.35;23.55;100850.63;109857;1271;138962;-67
2023/06/06 08:27:02;;;;;;;2.10;0.20;;;;;;;26.41;23.65;100852.30;110034;1271;22355;-65
2023/06/06 08:29:29;;;;;;;1.80;0.20;;;;;;;26.54;23.37;100848.45;109825;1271;137980;-65
2023/06/06 08:31:57;;;;;;;0.80;0.30;;;;;;;26.67;23.40;100848.38;110004;1271;22369;-68
2023/06/06 08:34:24;;;;;;;2.30;0.20;;;;;;;26.78;23.24;100844.42;109844;1272;137713;-66
2023/06/06 08:36:52;;;;;;;0.40;0.20;;;;;;;26.80;23.45;100843.81;109828;1272;138860;-67
2023/06/06 08:39:20;;;;;;;2.70;0.20;;;;;;;26.85;23.59;100840.44;109928;1272;22341;-68
2023/06/06 08:41:50;;;;;;;0.60;0.20;;;;;;;26.88;23.57;100827.40;109864;1272;137864;-68
2023/06/06 08:44:22;;;;;;;1.60;0.40;;;;;;;27.02;23.94;100832.91;109948;1271;139123;-65
2023/06/06 08:46:57;;;;;;;0.30;0.30;;;;;;;27.10;24.06;100834.75;109791;1272;22315;-65
2023/06/06 08:49:27;;;;;;;3.30;0.50;;;;;;;27.11;24.01;100832.50;109932;1271;139071;-64
2023/06/06 08:51:56;;;;;;;4.10;0.60;;;;;;;27.01;24.16;100829.69;109882;1272;22357;-73
2023/06/06 08:54:24;;;;;;;1.10;0.40;;;;;;;26.90;24.24;100827.16;109929;1271;137963;-74
2023/06/06 08:56:53;;;;;;;2.00;0.40;;;;;;;26.85;24.40;100824.90;109872;1272;138061;-74
2023/06/06 08:59:21;;;;;;;3.20;0.70;;;;;;;26.84;24.41;100828.36;109995;1272;22289;-74
2023/06/06 09:01:53;;;;;;;1.70;0.50;;;;;;;26.77;23.91;100824.91;109842;1257;138441;-75
2023/06/06 09:04:23;;;;;;;4.70;0.50;;;;;;;26.56;23.96;100827.29;109814;1272;139341;-74
2023/06/06 09:06:56;;;;;;;2.30;0.90;;;;;;;26.37;24.30;100824.38;110129;1272;22198;-74
2023/06/06 09:09:25;;;;;;;2.70;2.00;;;;;;;26.34;24.49;100828.95;110079;1260;137452;-76
2023/06/06 09:11:55;;;;;;;3.90;0.40;;;;;;;26.43;24.37;100828.95;110057;1272;22327;-74
2023/06/06 09:14:23;;;;;;;2.00;0.40;;;;;;;26.52;24.49;100825.70;109943;1262;138939;-75
2023/06/06 09:16:53;;;;;;;13.60;0.90;;;;;;;26.61;24.57;100819.77;109934;1272;138266;-75
2023/06/06 09:19:26;;;;;;;4.80;0.70;;;;;;;26.72;24.78;100816.59;109989;1277;23016;-76
2023/06/06 09:21:58;;;;;;;1.50;0.30;;;;;;;26.72;24.30;100799.09;109938;1273;139016;-73
2023/06/06 09:24:27;;;;;;;6.20;0.30;;;;;;;26.87;24.32;100809.19;109935;1273;137636;-77
2023/06/06 09:26:54;;;;;;;3.60;0.40;;;;;;;26.92;24.57;100808.70;110089;1272;22849;-74
2023/06/06 09:29:24;;;;;;;5.10;0.70;;;;;;;26.93;24.62;100808.42;109887;1271;138353;-74
2023/06/06 09:31:52;;;;;;;2.60;0.80;;;;;;;26.90;25.02;100805.71;110026;1274;22366;-74
2023/06/06 09:34:24;;;;;;;1.50;0.30;;;;;;;26.88;25.34;100803.98;109976;1274;137493;-74
2023/06/06 09:36:52;;;;;;;1.70;0.50;;;;;;;26.88;25.33;100803.17;109951;1272;138989;-76
2023/06/06 09:39:19;;;;;;;1.10;0.40;;;;;;;26.80;24.94;100802.31;110015;1278;22216;-75
2023/06/06 09:41:47;;;;;;;5.30;1.10;;;;;;;26.69;24.93;100797.95;109930;1275;137691;-75
2023/06/06 09:44:25;;;;;;;6.50;0.40;;;;;;;26.63;25.03;100798.44;109932;1272;138071;-74
2023/06/06 09:47:02;;;;;;;0.80;0.50;;;;;;;26.59;24.76;100798.95;110065;1275;22214;-77
2023/06/06 09:49:34;;;;;;;2.50;0.50;;;;;;;26.50;25.18;100800.36;109873;1272;137655;-75
2023/06/06 09:52:03;;;;;;;15.00;1.70;;;;;;;26.40;25.26;100792.05;109963;1275;22335;-77
2023/06/06 09:54:31;;;;;;;4.80;1.00;;;;;;;26.49;25.01;100798.34;109998;1273;22324;-76
2023/06/06 09:57:00;;;;;;;2.80;0.50;;;;;;;26.48;25.16;100798.63;109897;1262;137604;-77
2023/06/06 09:59:29;;;;;;;2.20;0.40;;;;;;;26.50;25.30;100796.48;109922;1274;22175;-74
2023/06/06 10:02:02;;;;;;;3.80;0.50;;;;;;;26.57;25.11;100789.94;109951;1279;139710;-78
2023/06/06 10:04:30;;;;;;;1.00;0.50;;;;;;;26.69;24.86;100791.11;109880;1273;140063;-77
2023/06/06 10:07:02;;;;;;;2.70;0.70;;;;;;;26.79;24.78;100789.79;110083;1270;22281;-77
2023/06/06 10:09:32;;;;;;;2.50;0.50;;;;;;;26.87;24.36;100789.61;109977;1270;137987;-77
2023/06/06 10:11:59;;;;;;;2.00;0.50;;;;;;;26.93;24.16;100788.03;109976;1274;22412;-77
2023/06/06 10:14:28;;;;;;;0.70;0.30;;;;;;;26.88;23.97;100791.84;109936;1273;137499;-75
2023/06/06 10:16:56;;;;;;;1.90;0.30;;;;;;;26.78;23.84;100793.52;109984;1271;139416;-77
2023/06/06 10:19:25;;;;;;;0.70;0.50;;;;;;;26.71;23.71;100792.74;109977;1276;22795;-76
2023/06/06 10:21:54;;;;;;;3.10;0.40;;;;;;;26.69;23.58;100788.66;109976;1272;138250;-76
2023/06/06 10:24:22;;;;;;;2.40;0.40;;;;;;;26.72;23.70;100785.58;109915;1274;140085;-78
2023/06/06 10:27:05;;;;;;;0.90;0.60;;;;;;;26.76;23.71;100788.65;109990;1270;22971;-73
2023/06/06 10:29:35;;;;;;;1.00;0.40;;;;;;;26.78;23.86;100786.23;109972;1278;137830;-78
2023/06/06 10:32:12;;;;;;;1.70;0.40;;;;;;;26.81;24.02;100783.31;109925;1278;138425;-73
2023/06/06 10:34:45;;;;;;;3.70;0.40;;;;;;;26.90;24.12;100781.33;110104;1277;22191;-76
2023/06/06 10:37:21;;;;;;;1.30;0.30;;;;;;;26.95;23.64;100780.02;110065;1270;137657;-75
2023/06/06 10:40:01;;;;;;;9.10;0.60;;;;;;;26.93;23.48;100780.47;110130;1274;22883;-75
2023/06/06 10:42:37;;;;;;;1.20;1.10;;;;;;;26.93;23.65;100778.94;110127;1256;22696;-74
2023/06/06 10:45:08;;;;;;;0.90;0.50;;;;;;;26.98;23.83;100781.13;109953;1272;137722;-76
2023/06/06 10:47:41;;;;;;;0.70;0.40;;;;;;;26.96;23.84;100781.70;110128;1270;22321;-75
2023/06/06 10:50:11;;;;;;;2.60;0.30;;;;;;;26.92;24.03;100776.55;110019;1272;139229;-75
2023/06/06 10:52:46;;;;;;;4.60;0.50;;;;;;;26.91;24.13;100777.48;109984;1272;139476;-75
2023/06/06 10:55:34;;;;;;;3.40;0.30;;;;;;;26.79;24.20;100770.69;110101;1272;22328;-75
2023/06/06 10:58:16;;;;;;;0.90;0.50;;;;;;;26.84;24.54;100780.12;110050;1270;137476;-74
2023/06/06 11:00:45;;;;;;;4.10;0.60;;;;;;;26.89;24.40;100779.02;110063;1271;139657;-75
2023/06/06 11:03:30;;;;;;;1.90;0.70;;;;;;;26.95;24.26;100776.14;110115;1271;22080;-76
2023/06/06 11:06:01;;;;;;;2.70;0.60;;;;;;;26.92;24.18;100776.49;110009;1271;137863;-74
2023/06/06 11:08:36;;;;;;;1.70;0.30;;;;;;;26.81;24.27;100778.89;110002;1269;139932;-75
2023/06/06 11:11:13;;;;;;;2.90;0.60;;;;;;;26.76;24.43;100775.54;110135;1273;23054;-76
2023/06/06 11:13:56;;;;;;;4.20;1.00;;;;;;;26.77;24.58;100770.81;109991;1277;137817;-75
2023/06/06 11:16:40;;;;;;;3.10;0.60;;;;;;;26.82;24.92;100768.48;110008;1270;139598;-76
2023/06/06 11:19:11;;;;;;;0.60;0.40;;;;;;;26.86;24.73;100772.71;110166;1274;22228;-76
2023/06/06 11:21:38;;;;;;;0.90;0.70;;;;;;;26.89;24.69;100772.85;110072;1271;139461;-75
2023/06/06 11:24:08;;;;;;;2.10;0.40;;;;;;;26.89;24.07;100770.44;109946;1271;139413;-76
2023/06/06 11:26:38;;;;;;;0.50;0.20;;;;;;;26.84;24.08;100765.67;110069;1272;23117;-75
2023/06/06 11:29:10;;;;;;;1.10;0.30;;;;;;;26.81;24.27;100766.30;110043;1278;138365;-76
2023/06/06 11:31:39;;;;;;;7.60;2.10;;;;;;;26.87;24.36;100765.92;110139;1271;22205;-77
2023/06/06 11:34:11;;;;;;;1.50;0.70;;;;;;;26.97;24.32;100763.36;110034;1271;138692;-76
2023/06/06 11:36:44;;;;;;;1.50;1.20;;;;;;;27.06;24.19;100761.63;110078;1278;138359;-75
2023/06/06 11:39:13;;;;;;;1.40;0.40;;;;;;;27.09;24.05;100763.25;110149;1270;22231;-75
2023/06/06 11:41:44;;;;;;;0.80;0.50;;;;;;;27.07;23.87;100760.42;109953;1271;138883;-76
2023/06/06 11:44:16;;;;;;;4.40;0.70;;;;;;;27.03;23.90;100760.97;109899;1270;138344;-75
2023/06/06 11:46:51;;;;;;;2.40;2.20;;;;;;;26.99;24.17;100754.60;110129;1271;23102;-76
2023/06/06 11:49:20;;;;;;;2.50;0.70;;;;;;;26.97;24.20;100751.48;109973;1271;139595;-76
2023/06/06 11:52:00;;;;;;;5.50;0.50;;;;;;;26.94;24.02;100749.77;110115;1269;22215;-75
2023/06/06 11:54:29;;;;;;;8.90;0.90;;;;;;;26.94;23.97;100752.02;110129;1274;22102;-76
2023/06/06 11:57:02;;;;;;;6.60;0.60;;;;;;;26.90;23.74;100750.80;110024;1270;138072;-75
2023/06/06 11:59:30;;;;;;;6.90;0.40;;;;;;;26.85;23.81;100746.30;110049;1274;22137;-75
2023/06/06 12:01:58;;;;;;;5.30;0.60;;;;;;;26.81;24.04;100745.90;110004;1277;137872;-76
2023/06/06 12:04:26;;;;;;;5.10;0.60;;;;;;;26.81;24.20;100742.79;110006;1260;139506;-74
2023/06/06 12:06:56;;;;;;;3.10;0.40;;;;;;;26.80;24.17;100736.40;110159;1271;22355;-75
2023/06/06 12:09:24;;;;;;;1.80;0.50;;;;;;;26.83;24.09;100739.44;110038;1278;139210;-74
2023/06/06 12:11:56;;;;;;;5.30;0.30;;;;;;;26.80;24.19;100736.94;110000;1270;22336;-75
2023/06/06 12:14:25;;;;;;;2.30;0.30;;;;;;;26.75;24.40;100730.38;110038;1278;137793;-75
2023/06/06 12:17:04;;;;;;;2.40;0.40;;;;;;;26.70;24.39;100728.61;110033;1271;137577;-74
2023/06/06 12:19:32;;;;;;;3.80;0.80;;;;;;;26.67;24.53;100727.04;110081;1258;22208;-74
2023/06/06 12:22:00;;;;;;;2.00;0.30;;;;;;;26.64;24.46;100728.27;110006;1271;137738;-74
2023/06/06 12:24:30;;;;;;;4.40;0.50;;;;;;;26.56;24.29;100728.42;110038;1260;138916;-75
2023/06/06 12:27:00;;;;;;;3.50;0.50;;;;;;;26.46;24.50;100728.99;110124;1271;22193;-75
2023/06/06 12:29:33;;;;;;;1.40;0.70;;;;;;;26.37;24.45;100725.18;110017;1279;138733;-75
2023/06/06 12:32:14;;;;;;;2.30;0.60;;;;;;;26.35;24.70;100725.42;110121;1271;22336;-74
2023/06/06 12:34:45;;;;;;;3.30;0.50;;;;;;;26.37;24.95;100724.91;110123;1274;23012;-73
2023/06/06 12:37:12;;;;;;;2.00;0.90;;;;;;;26.34;25.01;100719.20;109975;1260;138903;-74
2023/06/06 12:39:43;;;;;;;2.00;0.40;;;;;;;26.21;25.30;100708.58;110223;1270;22318;-75
2023/06/06 12:42:15;;;;;;;1.30;0.50;;;;;;;26.21;25.48;100713.77;109979;1274;138597;-74
2023/06/06 12:44:46;;;;;;;0.90;0.30;;;;;;;26.22;25.57;100711.26;109993;1270;138912;-75
2023/06/06 12:47:17;;;;;;;0.40;0.20;;;;;;;26.25;25.28;100712.21;110107;1278;22936;-75
2023/06/06 12:49:45;;;;;;;1.70;0.50;;;;;;;26.25;25.32;100711.89;109903;1274;139169;-77
2023/06/06 12:52:12;;;;;;;2.30;0.60;;;;;;;26.24;25.17;100716.20;109973;1273;138243;-76
2023/06/06 12:54:40;;;;;;;2.20;0.40;;;;;;;26.18;25.22;100716.96;110034;1274;22326;-75
2023/06/06 12:57:11;;;;;;;4.60;0.40;;;;;;;26.16;25.27;100708.83;110031;1270;140048;-76
2023/06/06 12:59:41;;;;;;;2.40;0.40;;;;;;;26.20;25.21;100706.45;109904;1272;23006;-75
2023/06/06 13:02:10;;;;;;;2.10;1.30;;;;;;;26.21;25.26;100691.38;109903;1270;137435;-74
2023/06/06 13:04:40;;;;;;;1.50;0.60;;;;;;;26.34;25.03;100696.29;109874;1261;137976;-74
2023/06/06 13:07:08;;;;;;;0.50;0.50;;;;;;;26.39;25.15;100695.93;110139;1271;22211;-75
2023/06/06 13:09:37;;;;;;;3.60;0.80;;;;;;;26.41;25.02;100694.71;110107;1275;139159;-75
2023/06/06 13:12:07;;;;;;;1.90;0.60;;;;;;;26.41;24.65;100692.02;110090;1278;137997;-74
2023/06/06 13:14:41;;;;;;;1.20;0.90;;;;;;;26.43;24.72;100685.34;110134;1272;22330;-76
2023/06/06 13:17:08;;;;;;;2.00;0.30;;;;;;;26.49;24.75;100684.59;110084;1261;138862;-76
2023/06/06 13:19:40;;;;;;;2.00;0.50;;;;;;;26.57;24.76;100682.88;110014;1272;22206;-74
2023/06/06 13:22:08;;;;;;;1.00;0.40;;;;;;;26.65;24.45;100684.04;109955;1271;137646;-76
2023/06/06 13:24:35;;;;;;;2.70;0.50;;;;;;;26.66;24.20;100681.30;109920;1261;138899;-75
2023/06/06 13:27:02;;;;;;;1.40;0.50;;;;;;;26.64;24.55;100676.45;110129;1258;22110;-75
2023/06/06 13:29:30;;;;;;;3.30;0.60;;;;;;;26.64;24.62;100676.84;110077;1260;140323;-75
2023/06/06 13:31:57;;;;;;;0.60;0.60;;;;;;;26.64;24.67;100674.64;110115;1267;22344;-74
2023/06/06 13:34:25;;;;;;;0.90;0.50;;;;;;;26.60;24.48;100673.64;110030;1271;138404;-75
2023/06/06 13:36:52;;;;;;;2.40;0.30;;;;;;;26.49;24.47;100674.08;110117;1265;137599;-73
2023/06/06 13:39:20;;;;;;;1.70;0.60;;;;;;;26.40;24.73;100674.48;110137;1273;22381;-76
2023/06/06 13:41:48;;;;;;;1.70;0.50;;;;;;;26.37;25.15;100674.73;110018;1261;140260;-73
2023/06/06 13:44:18;;;;;;;3.30;0.40;;;;;;;26.37;25.37;100670.03;110041;1271;138019;-75
2023/06/06 13:46:46;;;;;;;1.20;0.40;;;;;;;26.37;25.28;100670.20;110045;1270;22326;-74